createdAt,value
2023-04-01T00:02:04.990Z,6.23
2023-04-01T00:04:31.729Z,6.28
2023-04-01T00:06:58.487Z,6.21
2023-04-01T00:09:25.191Z,6.25
2023-04-01T00:11:56.748Z,6.18
2023-04-01T00:14:23.312Z,6.16
2023-04-01T00:16:49.917Z,6.19
2023-04-01T00:19:17.016Z,6.19
2023-04-01T00:21:43.588Z,6.17
2023-04-01T00:24:10.185Z,6.15
2023-04-01T00:26:36.825Z,6.16
2023-04-01T00:29:03.652Z,6.19
2023-04-01T00:31:31.172Z,6.20
2023-04-01T00:33:57.917Z,6.18
2023-04-01T00:36:24.851Z,6.15
2023-04-01T00:38:51.600Z,6.18
2023-04-01T00:41:18.863Z,6.15
2023-04-01T00:43:48.305Z,6.17
2023-04-01T00:46:15.271Z,6.18
2023-04-01T00:48:45.813Z,6.17
2023-04-01T00:51:12.328Z,6.17
2023-04-01T00:53:43.285Z,6.17
2023-04-01T00:56:13.734Z,6.14
2023-04-01T00:58:41.524Z,6.17
2023-04-01T01:01:08.288Z,6.19
2023-04-01T01:03:35.304Z,6.16
2023-04-01T01:06:12.802Z,6.19
2023-04-01T01:08:39.362Z,6.18
2023-04-01T01:11:06.549Z,6.21
2023-04-01T01:13:49.563Z,6.18
2023-04-01T01:16:19.419Z,6.18
2023-04-01T01:22:25.826Z,6.19
2023-04-01T01:24:52.396Z,6.19
2023-04-01T01:27:19.579Z,6.16
2023-04-01T01:29:58.440Z,6.21
2023-04-01T01:32:25.812Z,6.21
2023-04-01T01:35:11.389Z,6.19
2023-04-01T01:37:38.136Z,6.21
2023-04-01T01:40:06.243Z,6.18
2023-04-01T01:42:32.880Z,6.14
2023-04-01T01:45:00.636Z,6.13
2023-04-01T01:47:27.632Z,6.14
2023-04-01T01:49:54.356Z,6.15
2023-04-01T01:52:20.943Z,6.12
2023-04-01T01:54:50.210Z,6.15
2023-04-01T01:57:16.879Z,6.16
2023-04-01T01:59:44.061Z,6.15
2023-04-01T02:02:10.815Z,6.12
2023-04-01T02:04:37.971Z,6.16
2023-04-01T02:07:04.977Z,6.16
2023-04-01T02:09:31.542Z,6.18
2023-04-01T02:12:05.618Z,6.17
2023-04-01T02:14:38.872Z,6.14
2023-04-01T02:17:07.306Z,6.15
2023-04-01T02:19:36.283Z,6.15
2023-04-01T02:22:03.917Z,6.18
2023-04-01T02:24:31.900Z,6.15
2023-04-01T02:26:58.535Z,6.15
2023-04-01T02:29:26.548Z,6.12
2023-04-01T02:31:53.525Z,6.08
2023-04-01T02:34:20.756Z,6.15
2023-04-01T02:36:48.474Z,6.09
2023-04-01T02:39:17.408Z,6.08
2023-04-01T02:41:44.467Z,6.08
2023-04-01T02:44:12.029Z,6.06
2023-04-01T02:46:38.909Z,6.08
2023-04-01T02:49:06.059Z,6.03
2023-04-01T02:51:33.121Z,6.02
2023-04-01T02:53:59.830Z,6.05
2023-04-01T02:59:55.719Z,6.06
2023-04-01T03:02:22.523Z,6.00
2023-04-01T03:04:49.594Z,5.95
2023-04-01T03:10:44.695Z,5.86
2023-04-01T03:13:11.988Z,5.89
2023-04-01T03:15:38.698Z,5.91
2023-04-01T03:18:05.446Z,5.93
2023-04-01T03:20:32.272Z,5.89
2023-04-01T03:22:58.883Z,5.86
2023-04-01T03:25:25.608Z,5.90
2023-04-01T03:27:52.266Z,5.90
2023-04-01T03:30:18.927Z,5.83
2023-04-01T03:32:45.654Z,5.81
2023-04-01T03:35:38.153Z,5.72
2023-04-01T03:38:05.300Z,5.65
2023-04-01T03:40:32.021Z,5.64
2023-04-01T03:42:58.666Z,5.64
2023-04-01T03:45:25.370Z,5.62
2023-04-01T03:47:52.384Z,5.64
2023-04-01T03:50:19.233Z,5.66
2023-04-01T03:52:45.811Z,5.71
2023-04-01T03:55:12.585Z,5.72
2023-04-01T03:57:39.136Z,5.76
2023-04-01T04:03:28.251Z,5.75
2023-04-01T04:23:20.014Z,5.88
2023-04-01T04:25:56.075Z,5.94
2023-04-01T04:28:22.712Z,5.90
2023-04-01T04:30:50.162Z,5.86
2023-04-01T04:33:20.163Z,5.87
2023-04-01T04:41:14.782Z,5.88
2023-04-01T04:43:41.891Z,5.86
2023-04-01T04:46:09.338Z,5.86
2023-04-01T04:48:37.878Z,5.92
2023-04-01T04:51:04.661Z,5.97
2023-04-01T05:14:52.971Z,5.94
2023-04-01T05:41:44.337Z,6.03
2023-04-01T05:54:57.523Z,6.07
2023-04-01T05:57:24.802Z,6.12
2023-04-01T06:02:33.117Z,6.11
2023-04-01T06:05:23.726Z,6.12
2023-04-01T06:07:52.833Z,6.15
2023-04-01T06:43:34.173Z,6.71
2023-04-01T06:46:07.676Z,6.71
2023-04-01T06:48:44.197Z,6.76
2023-04-01T06:51:23.275Z,6.83
2023-04-01T06:53:59.061Z,6.82
2023-04-01T06:56:28.907Z,6.75
2023-04-01T06:58:59.522Z,6.78
2023-04-01T07:01:32.455Z,6.74
2023-04-01T07:04:18.526Z,6.61
2023-04-01T07:09:44.941Z,6.68
2023-04-01T07:14:59.910Z,6.73
2023-04-01T07:17:34.588Z,6.79
2023-04-01T07:23:41.232Z,6.96
2023-04-01T07:26:36.352Z,6.96
2023-04-01T07:32:35.606Z,7.09
2023-04-01T07:38:52.267Z,7.12
2023-04-01T07:44:25.252Z,7.23
2023-04-01T07:50:48.026Z,7.12
2023-04-01T07:53:28.465Z,7.07
2023-04-01T07:56:06.674Z,7.21
2023-04-01T07:58:48.260Z,7.37
2023-04-01T08:01:34.695Z,7.54
2023-04-01T08:06:59.631Z,7.50
2023-04-01T08:09:45.738Z,7.42
2023-04-01T08:12:32.687Z,7.39
2023-04-01T08:15:22.878Z,7.43
2023-04-01T08:18:10.792Z,7.37
2023-04-01T08:29:59.033Z,7.85
2023-04-01T08:44:00.641Z,7.96
2023-04-01T09:01:34.305Z,7.73
2023-04-01T09:21:54.000Z,7.77
2023-04-01T09:24:39.777Z,7.70
2023-04-01T09:27:10.101Z,7.54
2023-04-01T09:49:56.230Z,7.79
2023-04-01T09:52:44.242Z,7.85
2023-04-01T09:55:42.243Z,7.81
2023-04-01T10:01:33.807Z,7.69
2023-04-01T11:24:10.680Z,8.20
2023-04-01T11:35:40.822Z,8.89
2023-04-01T12:16:12.558Z,8.95
2023-04-01T12:21:39.809Z,8.59
2023-04-01T12:24:10.430Z,8.68
2023-04-01T12:26:42.111Z,8.72
2023-04-01T12:46:45.584Z,10.21
2023-04-01T13:00:37.864Z,8.62
2023-04-01T13:03:10.412Z,8.47
2023-04-01T13:05:38.200Z,8.34
2023-04-01T13:08:19.720Z,8.22
2023-04-01T13:27:46.713Z,8.00
2023-04-01T14:40:44.112Z,8.13
2023-04-01T14:43:23.282Z,7.97
2023-04-01T14:51:47.125Z,7.85
2023-04-01T14:54:25.392Z,7.95
2023-04-01T14:57:02.902Z,7.95
2023-04-01T15:14:32.091Z,7.95
2023-04-01T15:46:00.574Z,7.76
